Golden Princess — ZCDA9 — position and weather

sailwx.info

Track history (hours):
 
Tides and Currents Weather Stations Pressure Air Temp Water Temp Dewpoint Dewpoint Depression Visibility Wind Speed Wind Dir Waves Ship Positions

Golden Princess

Operator: Princess Cruises

Last reported at 2014-Oct-30 17:32 UTC. Time now 2014-Oct-30 18:10 UTC.
Position N 33°45' W 118°17'.

Length 289.6 m; beam 36 m; draft 8.5 m.

Type: Ship. MMSI: 310344000.

Date/timePositionNaut miles runAvg speedWind from/ knotsBaromVisibWave heightAir tempDewpointWater temp
2014-Oct-30 17:32N 33°45' W 118°17'0 0.0
2014-Oct-30 16:32N 33°45' W 118°17'0 0.0
2014-Oct-30 15:31N 33°45' W 118°17'0 0.0
2014-Oct-30 14:31N 33°45' W 118°17'0 0.0
2014-Oct-30 13:33N 33°45' W 118°17'3 3.3
2014-Oct-30 12:34N 33°42' W 118°14'10 9.7
2014-Oct-30 11:34N 33°34' W 118°09'1111.0
2014-Oct-30 10:34N 33°23' W 118°04'1111.2
2014-Oct-30 09:33N 33°13' W 117°60'1111.0
2014-Oct-30 08:33N 33°03' W 117°54'1211.6
2014-Oct-30 07:33N 32°52' W 117°49'1211.7
2014-Oct-30 06:34N 32°41' W 117°46'1312.6
2014-Oct-30 05:34N 32°29' W 117°40'610.9
2014-Oct-30 05:00N 32°24' W 117°36'716.3 280 / 101016.310.8 0.520.017.623.0
2014-Oct-30 04:33N 32°18' W 117°31'1313.1
2014-Oct-30 03:33N 32°10' W 117°19'1313.4
2014-Oct-30 02:34N 32°02' W 117°07'23 1.7
2014-Oct-29 13:08N 31°46' W 116°48'6 9.6
2014-Oct-29 12:28N 31°43' W 116°55'27 8.9
2014-Oct-29 09:23N 31°23' W 117°17'9 9.9
2014-Oct-29 08:27N 31°14' W 117°18'36 8.6
2014-Oct-29 04:18N 31°06' W 117°59'60193.4
2014-Oct-29 04:00N 32°06' W 118°00'60129.5 350 / 101017.010.8 18.515.122.0
2014-Oct-29 03:32N 31°06' W 118°08'10 9.9
2014-Oct-29 02:33N 31°06' W 118°19'1110.1
2014-Oct-29 01:28N 31°06' W 118°32'910.2
2014-Oct-29 00:33N 31°06' W 118°43'26 8.6
2014-Oct-28 21:28N 31°16' W 119°12'1110.4
2014-Oct-28 20:28N 31°26' W 119°12'22 8.7
2014-Oct-28 18:00N 31°48' W 119°12'26 9.3 260 / 101017.210.8 1.019.015.621.0
2014-Oct-28 15:10N 32°02' W 118°46'710.0
2014-Oct-28 14:30N 32°02' W 118°38'2910.0
2014-Oct-28 11:33N 32°03' W 118°03'1010.0
2014-Oct-28 10:33N 32°12' W 117°58'10 9.5
2014-Oct-28 09:31N 32°21' W 117°54'9 9.6
2014-Oct-28 08:34N 32°29' W 117°51'9 9.4
2014-Oct-28 07:34N 32°38' W 117°47'1017.0
2014-Oct-28 07:00N 32°48' W 117°48'0 0.8 180 / 21014.510.8 19.517.922.0
2014-Oct-28 06:33N 32°48' W 117°48'1212.0
2014-Oct-28 05:33N 32°60' W 117°53'1110.8
2014-Oct-28 04:33N 33°08' W 118°01'1110.4
2014-Oct-28 03:32N 33°18' W 118°06'1110.8
2014-Oct-28 02:30N 33°29' W 118°10'1011.1
2014-Oct-28 01:33N 33°38' W 118°15'7 6.8
2014-Oct-28 00:33N 33°45' W 118°17'0 0.0
2014-Oct-27 23:32N 33°45' W 118°17'0 0.0
2014-Oct-27 22:32N 33°45' W 118°17'0 0.0
2014-Oct-27 21:32N 33°45' W 118°17'0 0.0
2014-Oct-27 20:31N 33°45' W 118°17'0 0.0
2014-Oct-27 19:28N 33°45' W 118°17'0 0.0
2014-Oct-27 18:33N 33°45' W 118°17'0 0.0
2014-Oct-27 17:33N 33°45' W 118°17'0 0.0
2014-Oct-27 16:32N 33°45' W 118°17'0 0.0
2014-Oct-27 15:32N 33°45' W 118°17'0 0.0
2014-Oct-27 14:31N 33°45' W 118°17'0 0.0
2014-Oct-27 13:29N 33°45' W 118°17'5 5.5
2014-Oct-27 12:33N 33°41' W 118°13'1110.7
2014-Oct-27 11:33N 33°31' W 118°08'1211.2
2014-Oct-27 10:31N 33°20' W 118°03'1111.0
2014-Oct-27 09:28N 33°10' W 117°57'1011.1
2014-Oct-27 08:34N 33°00' W 117°52'1111.1
2014-Oct-27 07:34N 32°50' W 117°48'1211.7
2014-Oct-27 06:33N 32°38' W 117°47'1413.9
2014-Oct-27 05:33N 32°27' W 117°38'1119.0
2014-Oct-27 05:00N 32°18' W 117°30'80 3.1 320 / 101016.710.8 19.515.323.0
2014-Oct-26 03:24N 31°06' W 118°12'810.0
2014-Oct-26 02:33N 31°06' W 118°22'1010.1
2014-Oct-26 01:33N 31°06' W 118°34'1110.2
2014-Oct-26 00:30N 31°06' W 118°46'38 7.6
2014-Oct-25 19:33N 31°37' W 119°12'11 9.9
2014-Oct-25 18:26N 31°48' W 119°12'910.1
2014-Oct-25 17:32N 31°57' W 119°12'8 8.3
2014-Oct-25 16:33N 32°02' W 119°05'10 9.8
2014-Oct-25 15:33N 32°02' W 118°53'10 9.7
2014-Oct-25 14:33N 32°02' W 118°42'10 9.7
2014-Oct-25 13:33N 32°02' W 118°30'10 9.6
2014-Oct-25 12:33N 32°02' W 118°19'10 9.6
2014-Oct-25 11:33N 32°02' W 118°08'9 8.7
2014-Oct-25 10:33N 32°08' W 117°60'10 9.9
2014-Oct-25 09:33N 32°17' W 117°56'1010.2
2014-Oct-25 08:33N 32°27' W 117°51'1010.3
2014-Oct-25 07:33N 32°36' W 117°47'1010.3
2014-Oct-25 06:33N 32°46' W 117°48'1010.0
2014-Oct-25 05:33N 32°56' W 117°51'1010.2
2014-Oct-25 04:33N 33°05' W 117°56'1010.1
2014-Oct-25 03:33N 33°14' W 118°03'1110.5
2014-Oct-25 02:33N 33°23' W 118°08'1010.5
2014-Oct-25 01:33N 33°33' W 118°12'1110.6
2014-Oct-25 00:33N 33°43' W 118°16'2 1.7
2014-Oct-24 23:33N 33°45' W 118°17'0 0.0
2014-Oct-24 22:33N 33°45' W 118°17'0 0.0
2014-Oct-24 21:32N 33°45' W 118°17'0 0.0
2014-Oct-24 20:32N 33°45' W 118°17'0 0.0
2014-Oct-24 19:31N 33°45' W 118°17'0 0.0
2014-Oct-24 18:31N 33°45' W 118°17'0 0.0
2014-Oct-24 17:34N 33°45' W 118°17'0 0.0
2014-Oct-24 16:33N 33°45' W 118°17'0 0.0
2014-Oct-24 15:33N 33°45' W 118°17'0 0.0
2014-Oct-24 14:32N 33°45' W 118°17'0 0.0
2014-Oct-24 13:32N 33°45' W 118°17'5 4.7
2014-Oct-24 12:34N 33°41' W 118°13'1111.1
2014-Oct-24 11:34N 33°31' W 118°08'1111.1
2014-Oct-24 10:34N 33°21' W 118°03'1110.9
2014-Oct-24 09:34N 33°11' W 117°58'1111.0
2014-Oct-24 08:34N 33°01' W 117°52'1111.0
2014-Oct-24 07:34N 32°50' W 117°48'1111.1
2014-Oct-24 06:34N 32°39' W 117°45'1110.9
2014-Oct-24 05:33N 32°29' W 117°40'1514.6
2014-Oct-24 04:33N 32°16' W 117°33'1414.3
2014-Oct-24 03:33N 32°08' W 117°19'1312.7
2014-Oct-24 02:33N 32°01' W 117°06'1212.1
2014-Oct-24 01:33N 31°55' W 116°54'1211.6
2014-Oct-24 00:33N 31°50' W 116°42'5 0.5
2014-Oct-23 13:17N 31°47' W 116°46'811.0
2014-Oct-23 12:33N 31°43' W 116°55'1010.3
2014-Oct-23 11:33N 31°37' W 117°04'10 9.9
2014-Oct-23 10:33N 31°28' W 117°10'11 9.5
2014-Oct-23 09:26N 31°19' W 117°16'8 9.3
2014-Oct-23 08:33N 31°12' W 117°21'10 9.4
2014-Oct-23 07:32N 31°04' W 117°28'9 9.4
2014-Oct-23 06:32N 31°04' W 117°39'10 9.7
2014-Oct-23 05:32N 31°03' W 117°50'1110.9
2014-Oct-23 04:33N 31°03' W 118°03'1110.5
2014-Oct-23 03:33N 31°03' W 118°15'1010.0
2014-Oct-23 02:33N 31°03' W 118°27'1010.0
2014-Oct-23 01:33N 31°03' W 118°38'1010.1
2014-Oct-23 00:33N 31°03' W 118°50'1010.0
2014-Oct-22 23:33N 31°03' W 119°02'10 9.2
2014-Oct-22 22:29N 31°05' W 119°13'3310.3
2014-Oct-22 19:15N 31°39' W 119°13'910.4
2014-Oct-22 18:24N 31°48' W 119°14'8 9.3
2014-Oct-22 17:32N 31°53' W 119°08'9 9.2
2014-Oct-22 16:32N 31°53' W 118°57'11 9.6
2014-Oct-22 15:25N 31°53' W 118°44'8 9.2
2014-Oct-22 14:29N 31°54' W 118°34'20 9.2
2014-Oct-22 12:18N 31°53' W 118°10'10 9.2
2014-Oct-22 11:14N 31°53' W 117°59'7 9.5
2014-Oct-22 10:32N 31°55' W 117°51'9 8.8
2014-Oct-22 09:33N 32°02' W 117°46'10 9.7
2014-Oct-22 08:30N 32°13' W 117°46'10 9.7
2014-Oct-22 07:30N 32°22' W 117°46'9 9.7
2014-Oct-22 06:33N 32°32' W 117°46'9 9.4
2014-Oct-22 05:33N 32°41' W 117°46'1010.1
2014-Oct-22 04:33N 32°50' W 117°50'1010.1
2014-Oct-22 03:33N 33°00' W 117°54'1111.4
2014-Oct-22 02:33N 33°09' W 118°03'1312.7
2014-Oct-22 01:33N 33°18' W 118°13'6 5.0
2014-Oct-22 00:26N 33°21' W 118°19'0 0.0
2014-Oct-21 23:32N 33°21' W 118°19'0 0.0
2014-Oct-21 22:13N 33°21' W 118°19'0 0.0
2014-Oct-21 21:31N 33°21' W 118°19'0 0.0
2014-Oct-21 20:28N 33°21' W 118°19'0 0.0
2014-Oct-21 19:27N 33°21' W 118°19'0 0.0
2014-Oct-21 18:30N 33°21' W 118°19'0 0.0
2014-Oct-21 15:16N 33°21' W 118°19'2 1.0
2014-Oct-21 13:22N 33°21' W 118°17'18 9.4
2014-Oct-21 11:30N 33°08' W 118°03'1010.5
2014-Oct-21 10:33N 33°01' W 117°55'1110.8
2014-Oct-21 09:34N 32°51' W 117°51'1110.7
2014-Oct-21 08:34N 32°40' W 117°52'10 9.9
2014-Oct-21 07:33N 32°30' W 117°50'7 7.4
2014-Oct-21 06:33N 32°35' W 117°44'10 9.8
2014-Oct-21 05:33N 32°45' W 117°46'1110.7
2014-Oct-21 04:33N 32°55' W 117°48'1311.6
2014-Oct-21 03:24N 33°06' W 117°57'1313.7
2014-Oct-21 02:26N 33°18' W 118°05'1414.0
2014-Oct-21 01:28N 33°30' W 118°11'1112.7
2014-Oct-21 00:33N 33°41' W 118°15'4 3.8
2014-Oct-20 23:33N 33°45' W 118°17'0 0.0
2014-Oct-20 22:33N 33°45' W 118°17'0 0.0
2014-Oct-20 21:32N 33°45' W 118°17'0 0.0
2014-Oct-20 20:32N 33°45' W 118°17'0 0.0
2014-Oct-20 19:32N 33°45' W 118°17'0 0.0
2014-Oct-20 18:31N 33°45' W 118°17'  
Track history (hours):
 
Tides and Currents Weather Stations Pressure Air Temp Water Temp Dewpoint Dewpoint Depression Visibility Wind Speed Wind Dir Waves Ship Positions

Golden Princess

Operator: Princess Cruises

Last reported at 2014-Oct-30 17:32 UTC. Time now 2014-Oct-30 18:10 UTC.
Position N 33°45' W 118°17'.

Length 289.6 m; beam 36 m; draft 8.5 m.

Type: Ship. MMSI: 310344000.

Date/timePositionNaut miles runAvg speedWind from/ knotsBaromVisibWave heightAir tempDewpointWater temp
2014-Oct-30 17:32N 33°45' W 118°17'0 0.0
2014-Oct-30 16:32N 33°45' W 118°17'0 0.0
2014-Oct-30 15:31N 33°45' W 118°17'0 0.0
2014-Oct-30 14:31N 33°45' W 118°17'0 0.0
2014-Oct-30 13:33N 33°45' W 118°17'3 3.3
2014-Oct-30 12:34N 33°42' W 118°14'10 9.7
2014-Oct-30 11:34N 33°34' W 118°09'1111.0
2014-Oct-30 10:34N 33°23' W 118°04'1111.2
2014-Oct-30 09:33N 33°13' W 117°60'1111.0
2014-Oct-30 08:33N 33°03' W 117°54'1211.6
2014-Oct-30 07:33N 32°52' W 117°49'1211.7
2014-Oct-30 06:34N 32°41' W 117°46'1312.6
2014-Oct-30 05:34N 32°29' W 117°40'610.9
2014-Oct-30 05:00N 32°24' W 117°36'716.3 280 / 101016.310.8 0.520.017.623.0
2014-Oct-30 04:33N 32°18' W 117°31'1313.1
2014-Oct-30 03:33N 32°10' W 117°19'1313.4
2014-Oct-30 02:34N 32°02' W 117°07'23 1.7
2014-Oct-29 13:08N 31°46' W 116°48'6 9.6
2014-Oct-29 12:28N 31°43' W 116°55'27 8.9
2014-Oct-29 09:23N 31°23' W 117°17'9 9.9
2014-Oct-29 08:27N 31°14' W 117°18'36 8.6
2014-Oct-29 04:18N 31°06' W 117°59'60193.4
2014-Oct-29 04:00N 32°06' W 118°00'60129.5 350 / 101017.010.8 18.515.122.0
2014-Oct-29 03:32N 31°06' W 118°08'10 9.9
2014-Oct-29 02:33N 31°06' W 118°19'1110.1
2014-Oct-29 01:28N 31°06' W 118°32'910.2
2014-Oct-29 00:33N 31°06' W 118°43'26 8.6
2014-Oct-28 21:28N 31°16' W 119°12'1110.4
2014-Oct-28 20:28N 31°26' W 119°12'22 8.7
2014-Oct-28 18:00N 31°48' W 119°12'26 9.3 260 / 101017.210.8 1.019.015.621.0
2014-Oct-28 15:10N 32°02' W 118°46'710.0
2014-Oct-28 14:30N 32°02' W 118°38'2910.0
2014-Oct-28 11:33N 32°03' W 118°03'1010.0
2014-Oct-28 10:33N 32°12' W 117°58'10 9.5
2014-Oct-28 09:31N 32°21' W 117°54'9 9.6
2014-Oct-28 08:34N 32°29' W 117°51'9 9.4
2014-Oct-28 07:34N 32°38' W 117°47'1017.0
2014-Oct-28 07:00N 32°48' W 117°48'0 0.8 180 / 21014.510.8 19.517.922.0
2014-Oct-28 06:33N 32°48' W 117°48'1212.0
2014-Oct-28 05:33N 32°60' W 117°53'1110.8
2014-Oct-28 04:33N 33°08' W 118°01'1110.4
2014-Oct-28 03:32N 33°18' W 118°06'1110.8
2014-Oct-28 02:30N 33°29' W 118°10'1011.1
2014-Oct-28 01:33N 33°38' W 118°15'7 6.8
2014-Oct-28 00:33N 33°45' W 118°17'0 0.0
2014-Oct-27 23:32N 33°45' W 118°17'0 0.0
2014-Oct-27 22:32N 33°45' W 118°17'0 0.0
2014-Oct-27 21:32N 33°45' W 118°17'0 0.0
2014-Oct-27 20:31N 33°45' W 118°17'0 0.0
2014-Oct-27 19:28N 33°45' W 118°17'0 0.0
2014-Oct-27 18:33N 33°45' W 118°17'0 0.0
2014-Oct-27 17:33N 33°45' W 118°17'0 0.0
2014-Oct-27 16:32N 33°45' W 118°17'0 0.0
2014-Oct-27 15:32N 33°45' W 118°17'0 0.0
2014-Oct-27 14:31N 33°45' W 118°17'0 0.0
2014-Oct-27 13:29N 33°45' W 118°17'5 5.5
2014-Oct-27 12:33N 33°41' W 118°13'1110.7
2014-Oct-27 11:33N 33°31' W 118°08'1211.2
2014-Oct-27 10:31N 33°20' W 118°03'1111.0
2014-Oct-27 09:28N 33°10' W 117°57'1011.1
2014-Oct-27 08:34N 33°00' W 117°52'1111.1
2014-Oct-27 07:34N 32°50' W 117°48'1211.7
2014-Oct-27 06:33N 32°38' W 117°47'1413.9
2014-Oct-27 05:33N 32°27' W 117°38'1119.0
2014-Oct-27 05:00N 32°18' W 117°30'80 3.1 320 / 101016.710.8 19.515.323.0
2014-Oct-26 03:24N 31°06' W 118°12'810.0
2014-Oct-26 02:33N 31°06' W 118°22'1010.1
2014-Oct-26 01:33N 31°06' W 118°34'1110.2
2014-Oct-26 00:30N 31°06' W 118°46'38 7.6
2014-Oct-25 19:33N 31°37' W 119°12'11 9.9
2014-Oct-25 18:26N 31°48' W 119°12'910.1
2014-Oct-25 17:32N 31°57' W 119°12'8 8.3
2014-Oct-25 16:33N 32°02' W 119°05'10 9.8
2014-Oct-25 15:33N 32°02' W 118°53'10 9.7
2014-Oct-25 14:33N 32°02' W 118°42'10 9.7
2014-Oct-25 13:33N 32°02' W 118°30'10 9.6
2014-Oct-25 12:33N 32°02' W 118°19'10 9.6
2014-Oct-25 11:33N 32°02' W 118°08'9 8.7
2014-Oct-25 10:33N 32°08' W 117°60'10 9.9
2014-Oct-25 09:33N 32°17' W 117°56'1010.2
2014-Oct-25 08:33N 32°27' W 117°51'1010.3
2014-Oct-25 07:33N 32°36' W 117°47'1010.3
2014-Oct-25 06:33N 32°46' W 117°48'1010.0
2014-Oct-25 05:33N 32°56' W 117°51'1010.2
2014-Oct-25 04:33N 33°05' W 117°56'1010.1
2014-Oct-25 03:33N 33°14' W 118°03'1110.5
2014-Oct-25 02:33N 33°23' W 118°08'1010.5
2014-Oct-25 01:33N 33°33' W 118°12'1110.6
2014-Oct-25 00:33N 33°43' W 118°16'2 1.7
2014-Oct-24 23:33N 33°45' W 118°17'0 0.0
2014-Oct-24 22:33N 33°45' W 118°17'0 0.0
2014-Oct-24 21:32N 33°45' W 118°17'0 0.0
2014-Oct-24 20:32N 33°45' W 118°17'0 0.0
2014-Oct-24 19:31N 33°45' W 118°17'0 0.0
2014-Oct-24 18:31N 33°45' W 118°17'0 0.0
2014-Oct-24 17:34N 33°45' W 118°17'0 0.0
2014-Oct-24 16:33N 33°45' W 118°17'0 0.0
2014-Oct-24 15:33N 33°45' W 118°17'0 0.0
2014-Oct-24 14:32N 33°45' W 118°17'0 0.0
2014-Oct-24 13:32N 33°45' W 118°17'5 4.7
2014-Oct-24 12:34N 33°41' W 118°13'1111.1
2014-Oct-24 11:34N 33°31' W 118°08'1111.1
2014-Oct-24 10:34N 33°21' W 118°03'1110.9
2014-Oct-24 09:34N 33°11' W 117°58'1111.0
2014-Oct-24 08:34N 33°01' W 117°52'1111.0
2014-Oct-24 07:34N 32°50' W 117°48'1111.1
2014-Oct-24 06:34N 32°39' W 117°45'1110.9
2014-Oct-24 05:33N 32°29' W 117°40'1514.6
2014-Oct-24 04:33N 32°16' W 117°33'1414.3
2014-Oct-24 03:33N 32°08' W 117°19'1312.7
2014-Oct-24 02:33N 32°01' W 117°06'1212.1
2014-Oct-24 01:33N 31°55' W 116°54'1211.6
2014-Oct-24 00:33N 31°50' W 116°42'5 0.5
2014-Oct-23 13:17N 31°47' W 116°46'811.0
2014-Oct-23 12:33N 31°43' W 116°55'1010.3
2014-Oct-23 11:33N 31°37' W 117°04'10 9.9
2014-Oct-23 10:33N 31°28' W 117°10'11 9.5
2014-Oct-23 09:26N 31°19' W 117°16'8 9.3
2014-Oct-23 08:33N 31°12' W 117°21'10 9.4
2014-Oct-23 07:32N 31°04' W 117°28'9 9.4
2014-Oct-23 06:32N 31°04' W 117°39'10 9.7
2014-Oct-23 05:32N 31°03' W 117°50'1110.9
2014-Oct-23 04:33N 31°03' W 118°03'1110.5
2014-Oct-23 03:33N 31°03' W 118°15'1010.0
2014-Oct-23 02:33N 31°03' W 118°27'1010.0
2014-Oct-23 01:33N 31°03' W 118°38'1010.1
2014-Oct-23 00:33N 31°03' W 118°50'1010.0
2014-Oct-22 23:33N 31°03' W 119°02'10 9.2
2014-Oct-22 22:29N 31°05' W 119°13'3310.3
2014-Oct-22 19:15N 31°39' W 119°13'910.4
2014-Oct-22 18:24N 31°48' W 119°14'8 9.3
2014-Oct-22 17:32N 31°53' W 119°08'9 9.2
2014-Oct-22 16:32N 31°53' W 118°57'11 9.6
2014-Oct-22 15:25N 31°53' W 118°44'8 9.2
2014-Oct-22 14:29N 31°54' W 118°34'20 9.2
2014-Oct-22 12:18N 31°53' W 118°10'10 9.2
2014-Oct-22 11:14N 31°53' W 117°59'7 9.5
2014-Oct-22 10:32N 31°55' W 117°51'9 8.8
2014-Oct-22 09:33N 32°02' W 117°46'10 9.7
2014-Oct-22 08:30N 32°13' W 117°46'10 9.7
2014-Oct-22 07:30N 32°22' W 117°46'9 9.7
2014-Oct-22 06:33N 32°32' W 117°46'9 9.4
2014-Oct-22 05:33N 32°41' W 117°46'1010.1
2014-Oct-22 04:33N 32°50' W 117°50'1010.1
2014-Oct-22 03:33N 33°00' W 117°54'1111.4
2014-Oct-22 02:33N 33°09' W 118°03'1312.7
2014-Oct-22 01:33N 33°18' W 118°13'6 5.0
2014-Oct-22 00:26N 33°21' W 118°19'0 0.0
2014-Oct-21 23:32N 33°21' W 118°19'0 0.0
2014-Oct-21 22:13N 33°21' W 118°19'0 0.0
2014-Oct-21 21:31N 33°21' W 118°19'0 0.0
2014-Oct-21 20:28N 33°21' W 118°19'0 0.0
2014-Oct-21 19:27N 33°21' W 118°19'0 0.0
2014-Oct-21 18:30N 33°21' W 118°19'0 0.0
2014-Oct-21 15:16N 33°21' W 118°19'2 1.0
2014-Oct-21 13:22N 33°21' W 118°17'18 9.4
2014-Oct-21 11:30N 33°08' W 118°03'1010.5
2014-Oct-21 10:33N 33°01' W 117°55'1110.8
2014-Oct-21 09:34N 32°51' W 117°51'1110.7
2014-Oct-21 08:34N 32°40' W 117°52'10 9.9
2014-Oct-21 07:33N 32°30' W 117°50'7 7.4
2014-Oct-21 06:33N 32°35' W 117°44'10 9.8
2014-Oct-21 05:33N 32°45' W 117°46'1110.7
2014-Oct-21 04:33N 32°55' W 117°48'1311.6
2014-Oct-21 03:24N 33°06' W 117°57'1313.7
2014-Oct-21 02:26N 33°18' W 118°05'1414.0
2014-Oct-21 01:28N 33°30' W 118°11'1112.7
2014-Oct-21 00:33N 33°41' W 118°15'4 3.8
2014-Oct-20 23:33N 33°45' W 118°17'0 0.0
2014-Oct-20 22:33N 33°45' W 118°17'0 0.0
2014-Oct-20 21:32N 33°45' W 118°17'0 0.0
2014-Oct-20 20:32N 33°45' W 118°17'0 0.0
2014-Oct-20 19:32N 33°45' W 118°17'0 0.0
2014-Oct-20 18:31N 33°45' W 118°17'  

Dump ship's entire track history